createdAt,value
2023-05-08T00:00:10.141Z,5.50
2023-05-08T00:05:12.751Z,5.40
2023-05-08T00:10:15.188Z,5.50
2023-05-08T00:15:17.686Z,5.40
2023-05-08T00:20:23.255Z,5.30
2023-05-08T00:25:26.760Z,5.10
2023-05-08T00:30:29.064Z,5.20
2023-05-08T00:35:31.364Z,5.20
2023-05-08T00:40:33.706Z,5.30
2023-05-08T00:45:39.136Z,5.20
2023-05-08T00:50:41.545Z,5.10
2023-05-08T00:55:45.145Z,4.80
2023-05-08T01:00:48.240Z,4.70
2023-05-08T01:05:50.567Z,4.60
2023-05-08T01:11:23.511Z,4.60
2023-05-08T01:16:46.076Z,4.50
2023-05-08T01:22:15.756Z,4.40
2023-05-08T01:27:47.900Z,4.50
2023-05-08T01:33:36.433Z,4.30
2023-05-08T01:39:03.195Z,4.30
2023-05-08T01:44:19.666Z,4.40
2023-05-08T01:49:28.443Z,4.40
2023-05-08T01:54:42.233Z,4.30
2023-05-08T01:59:45.792Z,4.20
2023-05-08T02:04:49.309Z,4.10
2023-05-08T02:09:53.498Z,4.10
2023-05-08T02:14:56.497Z,4.10
2023-05-08T02:20:00.121Z,4.10
2023-05-08T02:25:03.327Z,4.10
2023-05-08T02:30:07.001Z,4.10
2023-05-08T02:35:12.937Z,4.10
2023-05-08T02:40:17.772Z,4.30
2023-05-08T02:45:21.073Z,4.20
2023-05-08T02:50:28.911Z,4.10
2023-05-08T02:55:34.645Z,4.20
2023-05-08T03:01:07.336Z,4.30
2023-05-08T03:06:24.251Z,4.30
2023-05-08T03:11:33.534Z,4.40
2023-05-08T03:16:38.206Z,4.50
2023-05-08T03:21:43.246Z,4.30
2023-05-08T03:26:46.384Z,4.20
2023-05-08T03:31:52.354Z,4.30
2023-05-08T03:36:55.539Z,4.50
2023-05-08T03:41:58.407Z,4.60
2023-05-08T03:47:02.808Z,4.60
2023-05-08T03:52:05.610Z,4.60
2023-05-08T03:57:08.481Z,4.80
2023-05-08T04:02:30.048Z,4.90
2023-05-08T04:07:43.221Z,5.00
2023-05-08T04:12:54.165Z,5.00
2023-05-08T04:18:04.319Z,5.10
2023-05-08T04:23:07.919Z,5.40
2023-05-08T04:28:11.428Z,5.60
2023-05-08T04:33:17.983Z,5.80
2023-05-08T04:38:20.749Z,6.10
2023-05-08T04:43:23.307Z,6.20
2023-05-08T04:48:26.320Z,6.40
2023-05-08T04:53:28.768Z,6.50
2023-05-08T04:58:31.166Z,6.60
2023-05-08T05:03:34.066Z,6.80
2023-05-08T05:08:36.588Z,6.90
2023-05-08T05:13:39.015Z,7.00
2023-05-08T05:18:41.502Z,7.20
2023-05-08T05:23:44.054Z,7.20
2023-05-08T05:28:46.631Z,7.40
2023-05-08T05:33:49.239Z,7.60
2023-05-08T05:38:51.844Z,7.80
2023-05-08T05:43:54.370Z,8.10
2023-05-08T05:48:58.421Z,8.30
2023-05-08T05:54:01.314Z,8.40
2023-05-08T05:59:04.296Z,8.40
2023-05-08T06:04:06.917Z,8.50
2023-05-08T06:09:09.457Z,8.60
2023-05-08T06:14:11.845Z,8.80
2023-05-08T06:19:15.128Z,8.90
2023-05-08T06:24:18.001Z,9.20
2023-05-08T06:29:20.355Z,9.10
2023-05-08T06:34:22.761Z,9.20
2023-05-08T06:39:25.076Z,9.30
2023-05-08T06:44:27.377Z,9.30
2023-05-08T06:49:30.542Z,9.50
2023-05-08T06:54:32.860Z,9.60
2023-05-08T06:59:35.261Z,9.80
2023-05-08T07:04:37.756Z,9.90
2023-05-08T07:09:40.704Z,10.00
2023-05-08T07:14:43.817Z,10.10
2023-05-08T07:19:51.092Z,10.20
2023-05-08T07:24:54.468Z,10.20
2023-05-08T07:29:58.496Z,10.50
2023-05-08T07:35:02.867Z,10.60
2023-05-08T07:40:05.720Z,10.50
2023-05-08T07:45:13.167Z,10.60
2023-05-08T07:50:16.725Z,10.70
2023-05-08T07:55:20.432Z,10.90
2023-05-08T08:00:23.028Z,11.30
2023-05-08T08:05:25.693Z,11.40
2023-05-08T08:10:28.172Z,11.60
2023-05-08T08:15:30.753Z,11.80
2023-05-08T08:20:33.804Z,11.80
2023-05-08T08:25:38.799Z,12.00
2023-05-08T08:36:23.349Z,12.20
2023-05-08T08:47:17.308Z,12.30
2023-05-08T08:52:54.573Z,12.60
2023-05-08T08:58:08.967Z,12.70
2023-05-08T09:03:11.585Z,13.00
2023-05-08T09:08:14.099Z,13.10
2023-05-08T09:13:18.826Z,12.90
2023-05-08T09:18:21.946Z,13.20
2023-05-08T09:23:24.321Z,13.20
2023-05-08T09:28:26.941Z,13.20
2023-05-08T09:33:30.090Z,13.60
2023-05-08T09:38:34.099Z,13.60
2023-05-08T09:43:37.044Z,13.80
2023-05-08T09:48:39.475Z,13.90
2023-05-08T09:53:42.162Z,14.30
2023-05-08T09:58:45.273Z,14.50
2023-05-08T10:03:50.608Z,14.80
2023-05-08T10:09:19.553Z,15.20
2023-05-08T10:14:25.668Z,15.50
2023-05-08T10:19:29.050Z,15.60
2023-05-08T10:24:36.506Z,15.70
2023-05-08T10:29:56.013Z,16.00
2023-05-08T10:35:03.402Z,16.30
2023-05-08T10:40:06.819Z,16.80
2023-05-08T10:45:10.096Z,17.20
2023-05-08T10:50:43.055Z,17.50
2023-05-08T10:55:48.587Z,17.70
2023-05-08T11:00:53.692Z,18.00
2023-05-08T11:05:59.497Z,18.00
2023-05-08T11:11:14.461Z,18.40
2023-05-08T11:16:16.894Z,18.50
2023-05-08T11:21:24.123Z,18.90
2023-05-08T11:26:40.653Z,19.50
2023-05-08T11:31:53.334Z,19.30
2023-05-08T11:37:02.504Z,19.70
2023-05-08T11:42:29.517Z,20.20
2023-05-08T11:47:41.566Z,20.50
2023-05-08T11:52:43.984Z,20.90
2023-05-08T11:57:46.319Z,21.00
2023-05-08T12:02:48.840Z,21.20
2023-05-08T12:07:51.252Z,21.30
2023-05-08T12:12:53.666Z,22.00
2023-05-08T12:18:02.895Z,22.40
2023-05-08T12:23:05.581Z,23.00
2023-05-08T12:28:08.815Z,23.40
2023-05-08T12:33:12.007Z,23.50
2023-05-08T12:38:14.460Z,24.20
2023-05-08T12:43:16.800Z,24.50
2023-05-08T12:48:20.163Z,25.00
2023-05-08T12:53:22.900Z,25.40
2023-05-08T12:58:33.418Z,26.00
2023-05-08T13:03:36.158Z,26.70
2023-05-08T13:08:39.136Z,27.10
2023-05-08T13:13:41.451Z,27.00
2023-05-08T13:18:43.720Z,27.70
2023-05-08T13:23:46.250Z,28.00
2023-05-08T13:28:48.656Z,29.20
2023-05-08T13:33:51.046Z,29.90
2023-05-08T13:38:54.836Z,29.90
2023-05-08T13:43:57.583Z,30.50
2023-05-08T13:49:00.016Z,31.10
2023-05-08T13:54:02.328Z,32.10
2023-05-08T13:59:04.971Z,32.40
2023-05-08T14:04:07.355Z,32.70
2023-05-08T14:09:10.021Z,32.80
2023-05-08T14:14:12.389Z,33.00
2023-05-08T14:19:14.748Z,32.80
2023-05-08T14:24:17.038Z,32.90
2023-05-08T14:29:19.348Z,33.20
2023-05-08T14:34:21.661Z,33.50
2023-05-08T14:39:24.102Z,33.30
2023-05-08T14:44:26.497Z,33.50
2023-05-08T14:49:37.566Z,33.70
2023-05-08T14:54:40.782Z,32.80
2023-05-08T14:59:49.376Z,33.50
2023-05-08T15:05:11.113Z,33.80
2023-05-08T15:10:19.726Z,33.20
2023-05-08T15:15:22.114Z,33.40
2023-05-08T15:20:24.416Z,33.70
2023-05-08T15:25:26.824Z,32.40
2023-05-08T15:30:29.172Z,32.00
2023-05-08T15:35:31.547Z,32.30
2023-05-08T15:40:34.332Z,33.40
2023-05-08T15:45:36.729Z,33.30
2023-05-08T15:50:39.125Z,33.60
2023-05-08T15:55:42.274Z,33.30
2023-05-08T16:00:45.617Z,33.30
2023-05-08T16:05:48.213Z,33.20
2023-05-08T16:10:50.556Z,33.40
2023-05-08T16:15:52.966Z,33.00
2023-05-08T16:20:55.464Z,32.50
2023-05-08T16:25:57.805Z,32.60
2023-05-08T16:31:00.268Z,31.50
2023-05-08T16:36:02.723Z,29.90
2023-05-08T16:41:06.863Z,28.00
2023-05-08T16:46:09.343Z,27.40
2023-05-08T16:51:11.963Z,27.90
2023-05-08T16:56:14.424Z,29.40
2023-05-08T17:01:17.111Z,29.80
2023-05-08T17:06:20.716Z,29.80
2023-05-08T17:11:23.539Z,29.20
2023-05-08T17:16:26.150Z,28.80
2023-05-08T17:21:30.193Z,26.70
2023-05-08T17:26:33.507Z,24.10
2023-05-08T17:31:35.947Z,22.50
2023-05-08T17:36:38.604Z,21.30
2023-05-08T17:41:41.010Z,20.50
2023-05-08T17:46:43.444Z,19.90
2023-05-08T17:52:01.519Z,19.40
2023-05-08T17:57:55.864Z,18.90
2023-05-08T18:02:58.538Z,18.60
2023-05-08T18:08:01.181Z,18.30
2023-05-08T18:13:03.721Z,17.90
2023-05-08T18:18:06.283Z,18.00
2023-05-08T18:23:08.832Z,17.70
2023-05-08T18:28:11.311Z,17.30
2023-05-08T18:33:13.900Z,17.20
2023-05-08T18:38:17.713Z,17.20
2023-05-08T18:43:20.225Z,16.80
2023-05-08T18:48:22.781Z,16.50
2023-05-08T18:53:25.331Z,16.50
2023-05-08T18:58:28.001Z,16.00
2023-05-08T19:03:31.208Z,15.80
2023-05-08T19:08:33.753Z,15.50
2023-05-08T19:13:36.911Z,15.50
2023-05-08T19:18:39.297Z,15.30
2023-05-08T19:23:41.710Z,15.20
2023-05-08T19:28:44.094Z,15.00
2023-05-08T19:33:48.346Z,14.80
2023-05-08T19:38:50.785Z,14.80
2023-05-08T19:43:53.240Z,14.70
2023-05-08T19:48:55.726Z,14.40
2023-05-08T19:53:58.114Z,14.10
2023-05-08T19:59:00.675Z,14.00
2023-05-08T20:04:03.798Z,13.80
2023-05-08T20:09:06.531Z,13.70
2023-05-08T20:14:09.020Z,13.50
2023-05-08T20:19:11.548Z,13.30
2023-05-08T20:24:15.198Z,13.00
2023-05-08T20:29:17.777Z,13.00
2023-05-08T20:34:21.916Z,12.70
2023-05-08T20:39:24.674Z,12.80
2023-05-08T20:44:27.140Z,12.60
2023-05-08T20:49:32.150Z,12.70
2023-05-08T20:54:34.688Z,12.50
2023-05-08T20:59:37.179Z,12.30
2023-05-08T21:04:40.812Z,12.10
2023-05-08T21:09:45.747Z,12.10
2023-05-08T21:14:48.258Z,12.20
2023-05-08T21:19:50.939Z,12.20
2023-05-08T21:24:53.564Z,12.10
2023-05-08T21:29:56.147Z,12.20
2023-05-08T21:34:58.706Z,12.20
2023-05-08T21:40:01.941Z,12.00
2023-05-08T21:45:04.832Z,11.90
2023-05-08T21:50:08.115Z,11.80
2023-05-08T21:55:10.682Z,11.50
2023-05-08T22:00:13.812Z,11.30
2023-05-08T22:05:23.520Z,11.10
2023-05-08T22:10:26.055Z,11.00
2023-05-08T22:15:30.212Z,10.80
2023-05-08T22:20:33.707Z,10.40
2023-05-08T22:25:36.379Z,10.30
2023-05-08T22:30:38.967Z,10.10
2023-05-08T22:35:41.494Z,10.20
2023-05-08T22:40:43.980Z,9.80
2023-05-08T22:45:46.522Z,9.70
2023-05-08T22:50:49.555Z,9.60
2023-05-08T22:55:52.299Z,9.40
2023-05-08T23:00:55.876Z,9.40
2023-05-08T23:05:58.921Z,9.30
2023-05-08T23:11:01.389Z,9.30
2023-05-08T23:16:04.306Z,9.20
2023-05-08T23:21:07.659Z,9.10
2023-05-08T23:26:10.159Z,8.80
2023-05-08T23:31:12.671Z,8.50
2023-05-08T23:36:15.479Z,8.50
2023-05-08T23:41:17.934Z,8.30
2023-05-08T23:46:20.495Z,8.30
2023-05-08T23:51:23.064Z,8.40
2023-05-08T23:56:26.955Z,8.10
